createdAt,value
2022-10-29T00:02:28.013Z,96671.87
2022-10-29T00:07:58.782Z,96652.33
2022-10-29T00:13:26.936Z,96669.26
2022-10-29T00:19:03.162Z,96652.88
2022-10-29T00:24:39.598Z,96639.49
2022-10-29T00:30:12.860Z,96643.36
2022-10-29T00:38:47.377Z,96644.30
2022-10-29T00:41:35.703Z,96636.33
2022-10-29T00:47:24.233Z,96654.52
2022-10-29T00:52:55.991Z,96661.66
2022-10-29T00:55:44.786Z,96661.21
2022-10-29T01:01:20.994Z,96650.29
2022-10-29T01:07:11.595Z,96652.08
2022-10-29T01:12:56.992Z,96651.38
2022-10-29T01:18:39.116Z,96651.89
2022-10-29T01:24:59.371Z,96649.23
2022-10-29T01:28:00.796Z,96652.80
2022-10-29T01:34:01.112Z,96637.16
2022-10-29T01:39:40.534Z,96631.42
2022-10-29T01:45:34.210Z,96623.97
2022-10-29T01:51:09.253Z,96625.60
2022-10-29T01:53:57.790Z,96629.90
2022-10-29T01:59:43.213Z,96621.51
2022-10-29T02:05:18.907Z,96612.15
2022-10-29T02:11:03.689Z,96611.45
2022-10-29T02:16:42.277Z,96619.67
2022-10-29T02:19:32.555Z,96622.17
2022-10-29T02:22:22.615Z,96615.78
2022-10-29T02:25:12.779Z,96613.86
2022-10-29T02:30:44.647Z,96607.16
2022-10-29T02:33:33.323Z,96605.20
2022-10-29T02:36:21.516Z,96596.78
2022-10-29T02:41:50.852Z,96596.78
2022-10-29T02:47:23.090Z,96591.84
2022-10-29T02:52:58.608Z,96597.61
2022-10-29T02:55:46.761Z,96597.18
2022-10-29T03:01:20.181Z,96598.16
2022-10-29T03:09:49.349Z,96587.22
2022-10-29T03:15:20.664Z,96578.52
2022-10-29T03:18:09.234Z,96578.47
2022-10-29T03:20:57.758Z,96578.45
2022-10-29T03:23:45.540Z,96579.11
2022-10-29T03:26:33.972Z,96580.01
2022-10-29T03:32:09.850Z,96584.97
2022-10-29T03:34:59.918Z,96584.72
2022-10-29T03:37:51.107Z,96581.52
2022-10-29T03:40:38.872Z,96580.13
2022-10-29T03:43:31.047Z,96581.78
2022-10-29T03:49:02.234Z,96580.19
2022-10-29T03:54:40.107Z,96582.78
2022-10-29T03:57:28.247Z,96581.13
2022-10-29T04:03:06.472Z,96574.31
2022-10-29T04:08:42.526Z,96567.88
2022-10-29T04:14:16.433Z,96576.38
2022-10-29T04:19:43.200Z,96578.93
2022-10-29T04:30:52.818Z,96576.22
2022-10-29T04:36:45.416Z,96582.95
2022-10-29T04:39:33.548Z,96572.60
2022-10-29T04:45:12.422Z,96574.20
2022-10-29T04:48:04.927Z,96581.21
2022-10-29T04:53:37.125Z,96582.20
2022-10-29T04:59:11.507Z,96587.69
2022-10-29T05:01:59.559Z,96587.92
2022-10-29T05:07:34.593Z,96585.19
2022-10-29T05:10:23.263Z,96578.84
2022-10-29T05:13:14.062Z,96578.52
2022-10-29T05:16:02.402Z,96579.41
2022-10-29T05:21:31.369Z,96570.11
2022-10-29T05:27:08.136Z,96558.86
2022-10-29T05:32:44.310Z,96562.17
2022-10-29T05:35:33.046Z,96561.45
2022-10-29T05:41:11.019Z,96562.42
2022-10-29T05:43:59.620Z,96565.24
2022-10-29T05:49:33.239Z,96560.98
2022-10-29T05:55:18.463Z,96558.67
2022-10-29T06:00:57.431Z,96563.70
2022-10-29T06:03:45.267Z,96565.86
2022-10-29T06:09:16.789Z,96569.74
2022-10-29T06:12:11.443Z,96572.66
2022-10-29T06:17:43.140Z,96576.45
2022-10-29T06:23:29.077Z,96573.28
2022-10-29T06:26:17.215Z,96567.77
2022-10-29T06:37:34.642Z,96575.66
2022-10-29T06:43:10.849Z,96566.73
2022-10-29T06:45:59.531Z,96570.81
2022-10-29T06:48:48.322Z,96568.12
2022-10-29T06:51:36.153Z,96571.92
2022-10-29T06:54:25.072Z,96573.23
2022-10-29T06:57:13.433Z,96565.98
2022-10-29T07:02:50.668Z,96580.05
2022-10-29T07:05:38.902Z,96584.50
2022-10-29T07:08:28.780Z,96576.60
2022-10-29T07:11:17.460Z,96586.40
2022-10-29T07:16:54.420Z,96586.28
2022-10-29T07:19:47.685Z,96588.58
2022-10-29T07:22:36.371Z,96594.75
2022-10-29T07:25:25.752Z,96596.59
2022-10-29T07:28:16.355Z,96594.10
2022-10-29T07:31:04.635Z,96595.15
2022-10-29T07:36:39.418Z,96590.80
2022-10-29T07:39:27.350Z,96589.66
2022-10-29T07:45:16.542Z,96586.05
2022-10-29T07:50:53.941Z,96585.32
2022-10-29T07:59:17.656Z,96586.64
2022-10-29T08:04:52.925Z,96587.80
2022-10-29T08:07:42.087Z,96591.31
2022-10-29T08:13:16.228Z,96591.67
2022-10-29T08:18:44.904Z,96594.27
2022-10-29T08:24:20.653Z,96588.18
2022-10-29T08:29:54.493Z,96586.58
2022-10-29T08:35:36.126Z,96592.73
2022-10-29T08:38:26.844Z,96586.76
2022-10-29T08:44:20.323Z,96589.85
2022-10-29T08:50:01.775Z,96588.14
2022-10-29T08:55:58.410Z,96586.84
2022-10-29T09:01:37.514Z,96578.30
2022-10-29T09:10:13.788Z,96579.61
2022-10-29T09:16:01.028Z,96582.38
2022-10-29T09:21:53.387Z,96580.00
2022-10-29T09:27:34.733Z,96579.52
2022-10-29T09:36:48.326Z,96571.27
2022-10-29T09:45:55.388Z,96561.05
2022-10-29T09:51:34.283Z,96565.11
2022-10-29T09:54:23.013Z,96564.79
2022-10-29T09:57:16.661Z,96560.52
2022-10-29T10:00:08.693Z,96564.78
2022-10-29T10:03:02.941Z,96560.03
2022-10-29T10:09:02.768Z,96560.11
2022-10-29T10:14:38.632Z,96551.57
2022-10-29T10:20:11.468Z,96544.14
2022-10-29T10:23:00.435Z,96542.58
2022-10-29T10:28:36.354Z,96538.04
2022-10-29T10:31:24.579Z,96538.46
2022-10-29T10:34:20.527Z,96537.68
2022-10-29T10:40:02.563Z,96528.16
2022-10-29T10:42:50.798Z,96534.84
2022-10-29T10:51:19.839Z,96526.23
2022-10-29T10:57:01.442Z,96514.47
2022-10-29T10:59:54.459Z,96512.39
2022-10-29T11:05:32.229Z,96505.36
2022-10-29T11:08:27.433Z,96498.41
2022-10-29T11:14:08.474Z,96494.05
2022-10-29T11:16:58.731Z,96494.87
2022-10-29T11:22:37.392Z,96486.62
2022-10-29T11:28:24.018Z,96467.76
2022-10-29T11:31:17.589Z,96472.63
2022-10-29T11:34:09.240Z,96467.97
2022-10-29T11:39:49.510Z,96461.54
2022-10-29T11:45:25.284Z,96453.17
2022-10-29T11:48:21.743Z,96453.64
2022-10-29T11:53:58.212Z,96444.91
2022-10-29T11:56:53.733Z,96442.23
2022-10-29T12:02:38.723Z,96440.87
2022-10-29T12:05:30.556Z,96436.08
2022-10-29T12:11:17.970Z,96430.45
2022-10-29T12:19:50.697Z,96420.63
2022-10-29T12:22:41.612Z,96422.01
2022-10-29T12:28:20.332Z,96413.91
2022-10-29T12:34:05.167Z,96411.59
2022-10-29T12:37:02.466Z,96405.86
2022-10-29T12:42:43.653Z,96403.03
2022-10-29T12:48:18.088Z,96398.03
2022-10-29T12:51:12.406Z,96395.87
2022-10-29T12:56:58.555Z,96391.80
2022-10-29T12:59:47.002Z,96384.48
2022-10-29T13:05:43.563Z,96387.69
2022-10-29T13:14:07.447Z,96379.42
2022-10-29T13:16:57.407Z,96383.34
2022-10-29T13:19:49.124Z,96379.77
2022-10-29T13:22:53.959Z,96379.00
2022-10-29T13:25:49.226Z,96380.95
2022-10-29T13:32:04.850Z,96374.25
2022-10-29T13:38:11.656Z,96373.27
2022-10-29T13:44:05.960Z,96362.22
2022-10-29T13:46:56.997Z,96361.98
2022-10-29T13:49:46.993Z,96355.89
2022-10-29T13:55:18.544Z,96359.45
2022-10-29T14:00:54.309Z,96352.92
2022-10-29T14:06:32.461Z,96356.89
2022-10-29T14:12:16.441Z,96357.64
2022-10-29T14:20:35.545Z,96353.90
2022-10-29T14:26:17.586Z,96354.82
2022-10-29T14:32:07.288Z,96349.41
2022-10-29T14:37:41.114Z,96353.48
2022-10-29T14:40:29.590Z,96352.28
2022-10-29T14:43:21.991Z,96350.69
2022-10-29T14:51:53.957Z,96347.84
2022-10-29T14:57:33.295Z,96347.02
2022-10-29T15:00:26.626Z,96351.52
2022-10-29T15:06:10.181Z,96343.78
2022-10-29T15:11:40.781Z,96340.58
2022-10-29T15:14:37.487Z,96337.91
2022-10-29T15:20:21.156Z,96338.81
2022-10-29T15:26:06.980Z,96348.31
2022-10-29T15:28:56.767Z,96337.19
2022-10-29T15:38:22.593Z,96338.83
2022-10-29T15:41:35.613Z,96345.41
2022-10-29T15:47:43.042Z,96344.42
2022-10-29T15:53:18.852Z,96336.00
2022-10-29T15:58:56.751Z,96328.25
2022-10-29T16:07:15.882Z,96337.93
2022-10-29T16:12:47.146Z,96335.83
2022-10-29T16:29:49.233Z,96331.09
2022-10-29T16:35:48.903Z,96331.23
2022-10-29T16:41:21.505Z,96333.77
2022-10-29T16:47:09.443Z,96333.81
2022-10-29T16:52:47.748Z,96333.63
2022-10-29T16:59:01.556Z,96344.92
2022-10-29T17:04:37.120Z,96338.44
2022-10-29T17:10:11.774Z,96334.66
2022-10-29T17:15:51.536Z,96344.20
2022-10-29T17:21:41.288Z,96353.62
2022-10-29T17:27:15.543Z,96355.70
2022-10-29T17:32:43.886Z,96351.52
2022-10-29T17:56:55.280Z,96365.52
2022-10-29T18:02:23.338Z,96369.20
2022-10-29T18:08:20.910Z,96364.50
2022-10-29T18:13:56.599Z,96363.28
2022-10-29T18:19:33.480Z,96368.81
2022-10-29T18:25:11.956Z,96371.48
2022-10-29T18:30:51.236Z,96371.70
2022-10-29T18:33:39.377Z,96368.19
2022-10-29T18:39:15.706Z,96358.97
2022-10-29T18:44:59.591Z,96358.78
2022-10-29T18:50:48.203Z,96359.48
2022-10-29T18:56:19.217Z,96361.03
2022-10-29T18:59:14.541Z,96362.46
2022-10-29T19:04:51.607Z,96365.45
2022-10-29T19:07:40.285Z,96366.57
2022-10-29T19:13:18.923Z,96360.05
2022-10-29T19:19:01.293Z,96364.84
2022-10-29T19:24:32.113Z,96363.92
2022-10-29T19:30:11.765Z,96365.37
2022-10-29T19:33:07.773Z,96367.44
2022-10-29T19:38:40.470Z,96362.23
2022-10-29T19:44:33.936Z,96365.94
2022-10-29T19:50:10.940Z,96369.40
2022-10-29T19:55:50.381Z,96360.55
2022-10-29T20:01:25.707Z,96369.39
2022-10-29T20:07:09.070Z,96364.54
2022-10-29T20:09:57.399Z,96362.75
2022-10-29T20:18:26.560Z,96366.77
2022-10-29T20:24:03.676Z,96368.50
2022-10-29T20:26:52.273Z,96374.21
2022-10-29T20:29:42.194Z,96366.14
2022-10-29T20:35:17.037Z,96369.80
2022-10-29T20:43:39.052Z,96369.52
2022-10-29T20:49:15.604Z,96370.89
2022-10-29T20:54:52.846Z,96372.65
2022-10-29T21:00:29.486Z,96374.70
2022-10-29T21:06:13.892Z,96384.33
2022-10-29T21:11:38.542Z,96376.36
2022-10-29T21:17:16.650Z,96375.52
2022-10-29T21:22:48.420Z,96376.84
2022-10-29T21:28:20.319Z,96385.28
2022-10-29T21:31:08.900Z,96380.06
2022-10-29T21:39:26.206Z,96379.13
2022-10-29T21:45:00.141Z,96373.01
2022-10-29T21:47:50.937Z,96375.73
2022-10-29T21:50:40.356Z,96375.97
2022-10-29T21:53:28.573Z,96379.59
2022-10-29T22:01:47.075Z,96380.27
2022-10-29T22:07:15.749Z,96384.84
2022-10-29T22:12:50.332Z,96381.75
2022-10-29T22:18:39.815Z,96370.95
2022-10-29T22:21:28.292Z,96378.91
2022-10-29T22:27:15.729Z,96370.94
2022-10-29T22:32:50.368Z,96368.67
2022-10-29T22:38:19.235Z,96358.33
2022-10-29T22:43:58.830Z,96357.28
2022-10-29T22:49:31.497Z,96351.48
2022-10-29T22:55:11.212Z,96359.45
2022-10-29T23:00:45.946Z,96353.11
2022-10-29T23:06:23.417Z,96350.70
2022-10-29T23:11:52.739Z,96354.78
2022-10-29T23:17:31.614Z,96354.11
2022-10-29T23:23:09.368Z,96355.69
2022-10-29T23:28:41.169Z,96347.05
2022-10-29T23:31:30.639Z,96351.11
2022-10-29T23:37:09.995Z,96349.31
2022-10-29T23:42:44.511Z,96348.85
2022-10-29T23:48:18.501Z,96344.20
2022-10-29T23:53:57.634Z,96343.37
2022-10-29T23:59:29.768Z,96338.61
